PWSweather.com
Personal Weather Stations
Station Observations
SONYA
Sergiev PosadRU

Sergiev PosadRU

Lat: 56.28148651, Lon: 38.05462646

Elevation: 741

Station Type: Fine offset WH1091

High Low Average
Temperature 41.0°F5.0°C 37.6°F3.1°C 39.3°F4.1°C
Dew Point 40.4°F4.7°C 36.8°F2.7°C 38.8°F3.8°C
Winds 4.5 mph 7.2 kmh Calm Calm 1.0 mph SE1.6 kmh SE
Wind Gusts 7.6 mph12.2 kmh -- 3.0 mph4.8 kmh
Humidity 98% 96% 97%
Pressure 30.25 in1024.4 mb 30.18 in1022.0 mb -
Precipitation 0.01 in0.3 mm - -
Hour Temp Dew Point Humidity Winds Wind Gusts Pressure Precip Precip Rate Daily Precip Total
12:02 AM 37.6°F3.1°C 36.8°F2.7°C 96% 1.6 mph S2.6 kmh S 4.5 mph7.2 kmh 30.18 in1022.0 mb 0.00 in0.0 mm 0.00 in0.0 mm 0.00 in0.0 mm
12:07 AM 37.8°F3.2°C 37.0°F2.8°C 96% 1.6 mph SE2.6 kmh SE 3.8 mph6.1 kmh 30.18 in1022.0 mb 0.00 in0.0 mm 0.00 in0.0 mm 0.00 in0.0 mm
12:12 AM 37.8°F3.2°C 37.0°F2.8°C 96% 3.1 mph SW5.0 kmh SW 6.0 mph9.7 kmh 30.18 in1022.0 mb 0.00 in0.0 mm 0.00 in0.0 mm 0.00 in0.0 mm
12:17 AM 37.8°F3.2°C 37.0°F2.8°C 96% 1.6 mph SW2.6 kmh SW 3.1 mph5.0 kmh 30.18 in1022.0 mb 0.00 in0.0 mm 0.00 in0.0 mm 0.00 in0.0 mm
12:22 AM 37.8°F3.2°C 37.0°F2.8°C 96% 1.6 mph W2.6 kmh W 3.1 mph5.0 kmh 30.19 in1022.4 mb 0.00 in0.0 mm 0.00 in0.0 mm 0.00 in0.0 mm
12:27 AM 37.8°F3.2°C 37.0°F2.8°C 96% 1.6 mph SW2.6 kmh SW 3.1 mph5.0 kmh 30.19 in1022.4 mb 0.00 in0.0 mm 0.00 in0.0 mm 0.00 in0.0 mm
12:32 AM 37.8°F3.2°C 37.0°F2.8°C 96% 2.2 mph SW3.5 kmh SW 3.8 mph6.1 kmh 30.19 in1022.4 mb 0.00 in0.0 mm 0.00 in0.0 mm 0.00 in0.0 mm
12:37 AM 37.8°F3.2°C 37.0°F2.8°C 96% 2.2 mph S3.5 kmh S 4.5 mph7.2 kmh 30.18 in1022.0 mb 0.00 in0.0 mm 0.00 in0.0 mm 0.00 in0.0 mm
12:42 AM 37.8°F3.2°C 37.0°F2.8°C 96% 2.2 mph S3.5 kmh S 3.8 mph6.1 kmh 30.19 in1022.4 mb 0.00 in0.0 mm 0.00 in0.0 mm 0.00 in0.0 mm
12:47 AM 37.8°F3.2°C 37.0°F2.8°C 96% 1.6 mph SE2.6 kmh SE 3.8 mph6.1 kmh 30.19 in1022.4 mb 0.00 in0.0 mm 0.00 in0.0 mm 0.00 in0.0 mm
12:52 AM 37.8°F3.2°C 37.0°F2.8°C 96% 3.1 mph S5.0 kmh S 5.4 mph8.7 kmh 30.19 in1022.4 mb 0.00 in0.0 mm 0.00 in0.0 mm 0.00 in0.0 mm
12:57 AM 37.9°F3.3°C 37.2°F2.9°C 96% 2.2 mph E3.5 kmh E 3.8 mph6.1 kmh 30.18 in1022.0 mb 0.00 in0.0 mm 0.00 in0.0 mm 0.00 in0.0 mm
01:02 AM 37.9°F3.3°C 37.2°F2.9°C 96% 2.2 mph SE3.5 kmh SE 3.8 mph6.1 kmh 30.18 in1022.0 mb 0.00 in0.0 mm 0.00 in0.0 mm 0.00 in0.0 mm
01:07 AM 37.9°F3.3°C 37.2°F2.9°C 96% 2.2 mph S3.5 kmh S 3.8 mph6.1 kmh 30.18 in1022.0 mb 0.00 in0.0 mm 0.00 in0.0 mm 0.00 in0.0 mm
01:12 AM 37.9°F3.3°C 37.2°F2.9°C 96% 1.6 mph SE2.6 kmh SE 3.8 mph6.1 kmh 30.19 in1022.4 mb 0.00 in0.0 mm 0.00 in0.0 mm 0.00 in0.0 mm
01:17 AM 37.9°F3.3°C 37.2°F2.9°C 96% 1.6 mph S2.6 kmh S 2.2 mph3.5 kmh 30.18 in1022.0 mb 0.00 in0.0 mm 0.00 in0.0 mm 0.00 in0.0 mm
01:22 AM 37.9°F3.3°C 37.2°F2.9°C 96% 2.2 mph SW3.5 kmh SW 3.8 mph6.1 kmh 30.19 in1022.4 mb 0.00 in0.0 mm 0.00 in0.0 mm 0.00 in0.0 mm
01:27 AM 37.9°F3.3°C 37.2°F2.9°C 96% 3.1 mph SW5.0 kmh SW 4.5 mph7.2 kmh 30.19 in1022.4 mb 0.00 in0.0 mm 0.00 in0.0 mm 0.00 in0.0 mm
01:32 AM 37.9°F3.3°C 37.2°F2.9°C 96% 2.2 mph S3.5 kmh S 3.8 mph6.1 kmh 30.18 in1022.0 mb 0.00 in0.0 mm 0.00 in0.0 mm 0.00 in0.0 mm
01:37 AM 37.9°F3.3°C 37.2°F2.9°C 96% 0.7 mph SW1.1 kmh SW 2.2 mph3.5 kmh 30.19 in1022.4 mb 0.00 in0.0 mm 0.00 in0.0 mm 0.00 in0.0 mm
01:42 AM 37.9°F3.3°C 37.2°F2.9°C 96% 1.6 mph SE2.6 kmh SE 4.5 mph7.2 kmh 30.19 in1022.4 mb 0.00 in0.0 mm 0.00 in0.0 mm 0.00 in0.0 mm
01:47 AM 37.9°F3.3°C 37.2°F2.9°C 96% 1.6 mph S2.6 kmh S 3.1 mph5.0 kmh 30.19 in1022.4 mb 0.00 in0.0 mm 0.00 in0.0 mm 0.00 in0.0 mm
01:52 AM 37.9°F3.3°C 37.2°F2.9°C 96% 2.2 mph SW3.5 kmh SW 3.8 mph6.1 kmh 30.18 in1022.0 mb 0.00 in0.0 mm 0.00 in0.0 mm 0.00 in0.0 mm
01:57 AM 37.9°F3.3°C 37.2°F2.9°C 96% 1.6 mph SW2.6 kmh SW 3.8 mph6.1 kmh 30.19 in1022.4 mb 0.00 in0.0 mm 0.00 in0.0 mm 0.00 in0.0 mm
02:02 AM 38.1°F3.4°C 37.4°F3.0°C 96% 3.1 mph SW5.0 kmh SW 3.8 mph6.1 kmh 30.19 in1022.4 mb 0.00 in0.0 mm 0.00 in0.0 mm 0.00 in0.0 mm
02:07 AM 38.1°F3.4°C 37.4°F3.0°C 96% Calm Calm 0.7 mph1.1 kmh 30.19 in1022.4 mb 0.00 in0.0 mm 0.00 in0.0 mm 0.00 in0.0 mm
02:12 AM 38.1°F3.4°C 37.4°F3.0°C 96% 3.1 mph NE5.0 kmh NE 4.5 mph7.2 kmh 30.19 in1022.4 mb 0.00 in0.0 mm 0.00 in0.0 mm 0.00 in0.0 mm
02:17 AM 38.1°F3.4°C 37.4°F3.0°C 96% 1.6 mph SE2.6 kmh SE 3.8 mph6.1 kmh 30.19 in1022.4 mb 0.00 in0.0 mm 0.00 in0.0 mm 0.00 in0.0 mm
02:22 AM 38.1°F3.4°C 37.4°F3.0°C 96% 2.2 mph S3.5 kmh S 3.1 mph5.0 kmh 30.19 in1022.4 mb 0.00 in0.0 mm 0.00 in0.0 mm 0.00 in0.0 mm
02:27 AM 38.1°F3.4°C 37.4°F3.0°C 96% 0.7 mph S1.1 kmh S 2.2 mph3.5 kmh 30.19 in1022.4 mb 0.00 in0.0 mm 0.00 in0.0 mm 0.00 in0.0 mm
02:32 AM 38.1°F3.4°C 37.6°F3.1°C 97% 0.7 mph SE1.1 kmh SE 2.2 mph3.5 kmh 30.19 in1022.4 mb 0.00 in0.0 mm 0.00 in0.0 mm 0.00 in0.0 mm
02:37 AM 38.1°F3.4°C 37.6°F3.1°C 97% 0.7 mph SE1.1 kmh SE 3.1 mph5.0 kmh 30.20 in1022.7 mb 0.00 in0.0 mm 0.00 in0.0 mm 0.00 in0.0 mm
02:42 AM 38.1°F3.4°C 37.6°F3.1°C 97% 0.7 mph S1.1 kmh S 2.2 mph3.5 kmh 30.19 in1022.4 mb 0.00 in0.0 mm 0.00 in0.0 mm 0.00 in0.0 mm
02:47 AM 38.1°F3.4°C 37.6°F3.1°C 97% Calm Calm 0.7 mph1.1 kmh 30.20 in1022.7 mb 0.00 in0.0 mm 0.00 in0.0 mm 0.00 in0.0 mm
02:52 AM 38.1°F3.4°C 37.6°F3.1°C 97% 2.2 mph SW3.5 kmh SW 3.1 mph5.0 kmh 30.20 in1022.7 mb 0.00 in0.0 mm 0.00 in0.0 mm 0.00 in0.0 mm
02:57 AM 38.1°F3.4°C 37.6°F3.1°C 97% Calm Calm -- 30.20 in1022.7 mb 0.00 in0.0 mm 0.00 in0.0 mm 0.00 in0.0 mm
03:02 AM 38.1°F3.4°C 37.6°F3.1°C 97% Calm Calm 2.2 mph3.5 kmh 30.20 in1022.7 mb 0.00 in0.0 mm 0.00 in0.0 mm 0.00 in0.0 mm
03:07 AM 38.1°F3.4°C 37.6°F3.1°C 97% 2.2 mph S3.5 kmh S 3.1 mph5.0 kmh 30.20 in1022.7 mb 0.00 in0.0 mm 0.00 in0.0 mm 0.00 in0.0 mm
03:12 AM 38.1°F3.4°C 37.6°F3.1°C 97% 0.7 mph S1.1 kmh S 2.2 mph3.5 kmh 30.20 in1022.7 mb 0.00 in0.0 mm 0.00 in0.0 mm 0.00 in0.0 mm
03:17 AM 38.1°F3.4°C 37.6°F3.1°C 97% 2.2 mph S3.5 kmh S 3.8 mph6.1 kmh 30.20 in1022.7 mb 0.00 in0.0 mm 0.00 in0.0 mm 0.00 in0.0 mm
03:22 AM 38.1°F3.4°C 37.6°F3.1°C 97% 0.7 mph SW1.1 kmh SW 1.6 mph2.6 kmh 30.20 in1022.7 mb 0.00 in0.0 mm 0.00 in0.0 mm 0.00 in0.0 mm
03:27 AM 38.1°F3.4°C 37.6°F3.1°C 97% 0.7 mph SSW1.1 kmh SSW 2.2 mph3.5 kmh 30.21 in1023.0 mb 0.00 in0.0 mm 0.00 in0.0 mm 0.00 in0.0 mm
03:32 AM 38.1°F3.4°C 37.6°F3.1°C 97% Calm Calm -- 30.21 in1023.0 mb 0.00 in0.0 mm 0.00 in0.0 mm 0.00 in0.0 mm
03:37 AM 38.1°F3.4°C 37.6°F3.1°C 97% Calm Calm -- 30.20 in1022.7 mb 0.00 in0.0 mm 0.00 in0.0 mm 0.00 in0.0 mm
03:42 AM 38.3°F3.5°C 37.7°F3.2°C 97% 1.6 mph E2.6 kmh E 2.2 mph3.5 kmh 30.21 in1023.0 mb 0.00 in0.0 mm 0.00 in0.0 mm 0.00 in0.0 mm
03:47 AM 38.3°F3.5°C 37.7°F3.2°C 97% 1.6 mph E2.6 kmh E 2.2 mph3.5 kmh 30.20 in1022.7 mb 0.00 in0.0 mm 0.00 in0.0 mm 0.00 in0.0 mm
03:52 AM 38.3°F3.5°C 37.7°F3.2°C 97% Calm Calm 1.6 mph2.6 kmh 30.20 in1022.7 mb 0.00 in0.0 mm 0.00 in0.0 mm 0.00 in0.0 mm
03:57 AM 38.1°F3.4°C 37.6°F3.1°C 97% Calm Calm -- 30.20 in1022.7 mb 0.00 in0.0 mm 0.00 in0.0 mm 0.00 in0.0 mm
04:02 AM 38.1°F3.4°C 37.6°F3.1°C 97% Calm Calm -- 30.20 in1022.7 mb 0.00 in0.0 mm 0.00 in0.0 mm 0.00 in0.0 mm
04:07 AM 38.3°F3.5°C 37.7°F3.2°C 97% Calm Calm 0.7 mph1.1 kmh 30.20 in1022.7 mb 0.00 in0.0 mm 0.00 in0.0 mm 0.00 in0.0 mm
04:12 AM 38.3°F3.5°C 37.7°F3.2°C 97% 0.7 mph SE1.1 kmh SE 2.2 mph3.5 kmh 30.20 in1022.7 mb 0.00 in0.0 mm 0.00 in0.0 mm 0.00 in0.0 mm
04:17 AM 38.1°F3.4°C 37.6°F3.1°C 97% Calm Calm -- 30.20 in1022.7 mb 0.00 in0.0 mm 0.00 in0.0 mm 0.00 in0.0 mm
04:22 AM 38.3°F3.5°C 37.7°F3.2°C 97% 1.6 mph S2.6 kmh S 3.1 mph5.0 kmh 30.20 in1022.7 mb 0.00 in0.0 mm 0.00 in0.0 mm 0.00 in0.0 mm
04:27 AM 38.1°F3.4°C 37.6°F3.1°C 97% Calm Calm 0.7 mph1.1 kmh 30.20 in1022.7 mb 0.00 in0.0 mm 0.00 in0.0 mm 0.00 in0.0 mm
04:32 AM 38.1°F3.4°C 37.6°F3.1°C 97% Calm Calm 0.7 mph1.1 kmh 30.20 in1022.7 mb 0.00 in0.0 mm 0.00 in0.0 mm 0.00 in0.0 mm
04:37 AM 38.3°F3.5°C 37.7°F3.2°C 97% Calm Calm 1.6 mph2.6 kmh 30.21 in1023.0 mb 0.00 in0.0 mm 0.00 in0.0 mm 0.00 in0.0 mm
04:42 AM 38.3°F3.5°C 37.7°F3.2°C 97% 0.7 mph SE1.1 kmh SE 2.2 mph3.5 kmh 30.21 in1023.0 mb 0.00 in0.0 mm 0.00 in0.0 mm 0.00 in0.0 mm
04:47 AM 38.3°F3.5°C 37.7°F3.2°C 97% Calm Calm 0.7 mph1.1 kmh 30.20 in1022.7 mb 0.00 in0.0 mm 0.00 in0.0 mm 0.00 in0.0 mm
04:52 AM 38.3°F3.5°C 37.7°F3.2°C 97% 0.7 mph NE1.1 kmh NE 2.2 mph3.5 kmh 30.21 in1023.0 mb 0.00 in0.0 mm 0.00 in0.0 mm 0.00 in0.0 mm
04:57 AM 38.3°F3.5°C 37.7°F3.2°C 97% Calm Calm 1.6 mph2.6 kmh 30.21 in1023.0 mb 0.00 in0.0 mm 0.00 in0.0 mm 0.00 in0.0 mm
05:02 AM 38.3°F3.5°C 37.7°F3.2°C 97% Calm Calm 0.7 mph1.1 kmh 30.22 in1023.4 mb 0.00 in0.0 mm 0.00 in0.0 mm 0.00 in0.0 mm
05:07 AM 38.3°F3.5°C 37.7°F3.2°C 97% 1.6 mph S2.6 kmh S 3.1 mph5.0 kmh 30.21 in1023.0 mb 0.00 in0.0 mm 0.00 in0.0 mm 0.00 in0.0 mm
05:12 AM 38.3°F3.5°C 37.7°F3.2°C 97% 1.6 mph E2.6 kmh E 3.1 mph5.0 kmh 30.21 in1023.0 mb 0.00 in0.0 mm 0.00 in0.0 mm 0.00 in0.0 mm
05:17 AM 38.3°F3.5°C 37.7°F3.2°C 97% 1.6 mph SE2.6 kmh SE 2.2 mph3.5 kmh 30.21 in1023.0 mb 0.00 in0.0 mm 0.00 in0.0 mm 0.00 in0.0 mm
05:22 AM 38.3°F3.5°C 37.7°F3.2°C 97% 2.2 mph SE3.5 kmh SE 3.8 mph6.1 kmh 30.22 in1023.4 mb 0.00 in0.0 mm 0.00 in0.0 mm 0.00 in0.0 mm
05:27 AM 38.3°F3.5°C 37.7°F3.2°C 97% 1.6 mph SW2.6 kmh SW 3.1 mph5.0 kmh 30.22 in1023.4 mb 0.00 in0.0 mm 0.00 in0.0 mm 0.00 in0.0 mm
05:32 AM 38.3°F3.5°C 37.7°F3.2°C 97% 1.6 mph SE2.6 kmh SE 3.8 mph6.1 kmh 30.22 in1023.4 mb 0.00 in0.0 mm 0.00 in0.0 mm 0.00 in0.0 mm
05:37 AM 38.3°F3.5°C 37.7°F3.2°C 97% 1.6 mph SW2.6 kmh SW 2.2 mph3.5 kmh 30.22 in1023.4 mb 0.00 in0.0 mm 0.00 in0.0 mm 0.00 in0.0 mm
05:42 AM 38.3°F3.5°C 37.7°F3.2°C 97% Calm Calm 1.6 mph2.6 kmh 30.22 in1023.4 mb 0.00 in0.0 mm 0.00 in0.0 mm 0.00 in0.0 mm
05:47 AM 38.3°F3.5°C 37.7°F3.2°C 97% Calm Calm 2.2 mph3.5 kmh 30.22 in1023.4 mb 0.00 in0.0 mm 0.00 in0.0 mm 0.00 in0.0 mm
05:52 AM 38.3°F3.5°C 37.7°F3.2°C 97% 2.2 mph S3.5 kmh S 3.8 mph6.1 kmh 30.22 in1023.4 mb 0.00 in0.0 mm 0.00 in0.0 mm 0.00 in0.0 mm
05:57 AM 38.3°F3.5°C 37.7°F3.2°C 97% 1.6 mph SE2.6 kmh SE 3.1 mph5.0 kmh 30.21 in1023.0 mb 0.00 in0.0 mm 0.00 in0.0 mm 0.00 in0.0 mm
05:58 AM 38.3°F3.5°C 37.7°F3.2°C 97% Calm Calm 1.6 mph2.6 kmh 30.21 in1023.0 mb 0.00 in0.0 mm 0.00 in0.0 mm 0.00 in0.0 mm
06:03 AM 38.3°F3.5°C 37.7°F3.2°C 97% 0.7 mph SW1.1 kmh SW 2.2 mph3.5 kmh 30.22 in1023.4 mb 0.00 in0.0 mm 0.00 in0.0 mm 0.00 in0.0 mm
06:04 AM 38.3°F3.5°C 37.7°F3.2°C 97% Calm Calm 0.7 mph1.1 kmh 30.22 in1023.4 mb 0.00 in0.0 mm 0.00 in0.0 mm 0.00 in0.0 mm
06:08 AM 38.5°F3.6°C 37.9°F3.3°C 97% 1.6 mph SE2.6 kmh SE 2.2 mph3.5 kmh 30.22 in1023.4 mb 0.00 in0.0 mm 0.00 in0.0 mm 0.00 in0.0 mm
06:13 AM 38.5°F3.6°C 37.9°F3.3°C 97% 3.1 mph SE5.0 kmh SE 4.5 mph7.2 kmh 30.22 in1023.4 mb 0.00 in0.0 mm 0.00 in0.0 mm 0.00 in0.0 mm
06:14 AM 38.5°F3.6°C 37.9°F3.3°C 97% 1.6 mph E2.6 kmh E 2.2 mph3.5 kmh 30.22 in1023.4 mb 0.00 in0.0 mm 0.00 in0.0 mm 0.00 in0.0 mm
06:19 AM 38.5°F3.6°C 37.9°F3.3°C 97% 2.2 mph SW3.5 kmh SW 3.1 mph5.0 kmh 30.23 in1023.7 mb 0.00 in0.0 mm 0.00 in0.0 mm 0.00 in0.0 mm
06:20 AM 38.5°F3.6°C 37.9°F3.3°C 97% Calm Calm 2.2 mph3.5 kmh 30.22 in1023.4 mb 0.00 in0.0 mm 0.00 in0.0 mm 0.00 in0.0 mm
06:24 AM 38.5°F3.6°C 37.9°F3.3°C 97% 1.6 mph S2.6 kmh S 3.8 mph6.1 kmh 30.22 in1023.4 mb 0.00 in0.0 mm 0.00 in0.0 mm 0.00 in0.0 mm
06:29 AM 38.5°F3.6°C 37.9°F3.3°C 97% 1.6 mph SE2.6 kmh SE 3.1 mph5.0 kmh 30.23 in1023.7 mb 0.00 in0.0 mm 0.00 in0.0 mm 0.00 in0.0 mm
06:30 AM 38.5°F3.6°C 37.9°F3.3°C 97% 1.6 mph SE2.6 kmh SE 2.2 mph3.5 kmh 30.22 in1023.4 mb 0.00 in0.0 mm 0.00 in0.0 mm 0.00 in0.0 mm
06:35 AM 38.5°F3.6°C 37.9°F3.3°C 97% 0.7 mph S1.1 kmh S 2.2 mph3.5 kmh 30.22 in1023.4 mb 0.00 in0.0 mm 0.00 in0.0 mm 0.00 in0.0 mm
06:36 AM 38.5°F3.6°C 37.9°F3.3°C 97% 2.2 mph S3.5 kmh S 4.5 mph7.2 kmh 30.22 in1023.4 mb 0.00 in0.0 mm 0.00 in0.0 mm 0.00 in0.0 mm
06:40 AM 38.5°F3.6°C 37.9°F3.3°C 97% 0.7 mph SE1.1 kmh SE 3.1 mph5.0 kmh 30.23 in1023.7 mb 0.00 in0.0 mm 0.00 in0.0 mm 0.00 in0.0 mm
06:45 AM 38.5°F3.6°C 37.9°F3.3°C 97% 2.2 mph S3.5 kmh S 3.8 mph6.1 kmh 30.23 in1023.7 mb 0.00 in0.0 mm 0.00 in0.0 mm 0.00 in0.0 mm
06:46 AM 38.5°F3.6°C 37.9°F3.3°C 97% 2.2 mph S3.5 kmh S 3.8 mph6.1 kmh 30.23 in1023.7 mb 0.00 in0.0 mm 0.00 in0.0 mm 0.00 in0.0 mm
06:51 AM 38.5°F3.6°C 37.9°F3.3°C 97% Calm Calm 1.6 mph2.6 kmh 30.22 in1023.4 mb 0.00 in0.0 mm 0.00 in0.0 mm 0.00 in0.0 mm
06:52 AM 38.5°F3.6°C 37.9°F3.3°C 97% Calm Calm 1.6 mph2.6 kmh 30.22 in1023.4 mb 0.00 in0.0 mm 0.00 in0.0 mm 0.00 in0.0 mm
06:56 AM 38.5°F3.6°C 37.9°F3.3°C 97% 1.6 mph E2.6 kmh E 3.1 mph5.0 kmh 30.22 in1023.4 mb 0.00 in0.0 mm 0.00 in0.0 mm 0.00 in0.0 mm
07:01 AM 38.5°F3.6°C 37.9°F3.3°C 97% 1.6 mph E2.6 kmh E 2.2 mph3.5 kmh 30.22 in1023.4 mb 0.00 in0.0 mm 0.00 in0.0 mm 0.00 in0.0 mm
07:02 AM 38.5°F3.6°C 37.9°F3.3°C 97% 2.2 mph NE3.5 kmh NE 4.5 mph7.2 kmh 30.22 in1023.4 mb 0.00 in0.0 mm 0.00 in0.0 mm 0.00 in0.0 mm
07:07 AM 38.5°F3.6°C 37.9°F3.3°C 97% 0.7 mph SW1.1 kmh SW 2.2 mph3.5 kmh 30.22 in1023.4 mb 0.00 in0.0 mm 0.00 in0.0 mm 0.00 in0.0 mm
07:08 AM 38.5°F3.6°C 37.9°F3.3°C 97% 0.7 mph SW1.1 kmh SW 3.8 mph6.1 kmh 30.22 in1023.4 mb 0.00 in0.0 mm 0.00 in0.0 mm 0.00 in0.0 mm
07:12 AM 38.5°F3.6°C 37.9°F3.3°C 97% Calm Calm -- 30.21 in1023.0 mb 0.00 in0.0 mm 0.00 in0.0 mm 0.00 in0.0 mm
07:17 AM 38.5°F3.6°C 37.9°F3.3°C 97% Calm Calm 0.7 mph1.1 kmh 30.22 in1023.4 mb 0.00 in0.0 mm 0.00 in0.0 mm 0.00 in0.0 mm
07:18 AM 38.5°F3.6°C 37.9°F3.3°C 97% 0.7 mph S1.1 kmh S 2.2 mph3.5 kmh 30.21 in1023.0 mb 0.00 in0.0 mm 0.00 in0.0 mm 0.00 in0.0 mm
07:23 AM 38.5°F3.6°C 37.9°F3.3°C 97% 0.7 mph S1.1 kmh S 2.2 mph3.5 kmh 30.22 in1023.4 mb 0.00 in0.0 mm 0.00 in0.0 mm 0.00 in0.0 mm
07:24 AM 38.5°F3.6°C 37.9°F3.3°C 97% Calm Calm 0.7 mph1.1 kmh 30.21 in1023.0 mb 0.00 in0.0 mm 0.00 in0.0 mm 0.00 in0.0 mm
07:28 AM 38.5°F3.6°C 37.9°F3.3°C 97% 1.6 mph E2.6 kmh E 3.8 mph6.1 kmh 30.22 in1023.4 mb 0.00 in0.0 mm 0.00 in0.0 mm 0.00 in0.0 mm
07:33 AM 38.5°F3.6°C 37.9°F3.3°C 97% 0.7 mph E1.1 kmh E 2.2 mph3.5 kmh 30.23 in1023.7 mb 0.00 in0.0 mm 0.00 in0.0 mm 0.00 in0.0 mm
07:34 AM 38.5°F3.6°C 37.9°F3.3°C 97% 1.6 mph S2.6 kmh S 3.1 mph5.0 kmh 30.22 in1023.4 mb 0.00 in0.0 mm 0.00 in0.0 mm 0.00 in0.0 mm
07:39 AM 38.3°F3.5°C 37.7°F3.2°C 97% 0.7 mph NE1.1 kmh NE 3.8 mph6.1 kmh 30.22 in1023.4 mb 0.00 in0.0 mm 0.00 in0.0 mm 0.00 in0.0 mm
07:40 AM 38.5°F3.6°C 37.9°F3.3°C 97% Calm Calm 0.7 mph1.1 kmh 30.23 in1023.7 mb 0.00 in0.0 mm 0.00 in0.0 mm 0.00 in0.0 mm
07:44 AM 38.3°F3.5°C 37.7°F3.2°C 97% 0.7 mph S1.1 kmh S 1.6 mph2.6 kmh 30.23 in1023.7 mb 0.00 in0.0 mm 0.00 in0.0 mm 0.00 in0.0 mm
07:49 AM 38.3°F3.5°C 37.7°F3.2°C 97% 0.7 mph E1.1 kmh E 2.2 mph3.5 kmh 30.22 in1023.4 mb 0.00 in0.0 mm 0.00 in0.0 mm 0.00 in0.0 mm
07:50 AM 38.3°F3.5°C 37.7°F3.2°C 97% Calm Calm 2.2 mph3.5 kmh 30.24 in1024.0 mb 0.00 in0.0 mm 0.00 in0.0 mm 0.00 in0.0 mm
07:55 AM 38.3°F3.5°C 37.7°F3.2°C 97% 1.6 mph SE2.6 kmh SE 3.1 mph5.0 kmh 30.24 in1024.0 mb 0.00 in0.0 mm 0.00 in0.0 mm 0.00 in0.0 mm
07:56 AM 38.3°F3.5°C 37.7°F3.2°C 97% 3.1 mph S5.0 kmh S 4.5 mph7.2 kmh 30.23 in1023.7 mb 0.00 in0.0 mm 0.00 in0.0 mm 0.00 in0.0 mm
08:00 AM 38.3°F3.5°C 37.7°F3.2°C 97% Calm Calm -- 30.23 in1023.7 mb 0.00 in0.0 mm 0.00 in0.0 mm 0.00 in0.0 mm
08:05 AM 38.3°F3.5°C 37.7°F3.2°C 97% 0.7 mph NE1.1 kmh NE 1.6 mph2.6 kmh 30.22 in1023.4 mb 0.00 in0.0 mm 0.00 in0.0 mm 0.00 in0.0 mm
08:06 AM 38.3°F3.5°C 37.7°F3.2°C 97% 0.7 mph NE1.1 kmh NE 1.6 mph2.6 kmh 30.22 in1023.4 mb 0.00 in0.0 mm 0.00 in0.0 mm 0.00 in0.0 mm
08:11 AM 38.3°F3.5°C 37.7°F3.2°C 97% Calm Calm -- 30.23 in1023.7 mb 0.00 in0.0 mm 0.00 in0.0 mm 0.00 in0.0 mm
08:12 AM 38.3°F3.5°C 37.7°F3.2°C 97% Calm Calm -- 30.23 in1023.7 mb 0.00 in0.0 mm 0.00 in0.0 mm 0.00 in0.0 mm
08:16 AM 38.3°F3.5°C 37.7°F3.2°C 97% 0.7 mph SE1.1 kmh SE 1.6 mph2.6 kmh 30.24 in1024.0 mb 0.00 in0.0 mm 0.00 in0.0 mm 0.00 in0.0 mm
08:21 AM 38.3°F3.5°C 37.7°F3.2°C 97% 0.7 mph E1.1 kmh E 1.6 mph2.6 kmh 30.23 in1023.7 mb 0.00 in0.0 mm 0.00 in0.0 mm 0.00 in0.0 mm
08:22 AM 38.3°F3.5°C 37.7°F3.2°C 97% Calm Calm -- 30.24 in1024.0 mb 0.00 in0.0 mm 0.00 in0.0 mm 0.00 in0.0 mm
08:27 AM 38.3°F3.5°C 37.7°F3.2°C 97% 0.7 mph SW1.1 kmh SW 5.4 mph8.7 kmh 30.24 in1024.0 mb 0.00 in0.0 mm 0.00 in0.0 mm 0.00 in0.0 mm
08:28 AM 38.3°F3.5°C 37.7°F3.2°C 97% 0.7 mph E1.1 kmh E 3.1 mph5.0 kmh 30.24 in1024.0 mb 0.00 in0.0 mm 0.00 in0.0 mm 0.00 in0.0 mm
08:32 AM 38.3°F3.5°C 37.7°F3.2°C 97% 2.2 mph S3.5 kmh S 3.8 mph6.1 kmh 30.24 in1024.0 mb 0.01 in0.3 mm 0.18 in4.6 mm 0.01 in0.3 mm
08:37 AM 38.3°F3.5°C 37.7°F3.2°C 97% 2.2 mph S3.5 kmh S 3.8 mph6.1 kmh 30.24 in1024.0 mb 0.01 in0.3 mm 0.00 in0.0 mm 0.01 in0.3 mm
08:38 AM 38.3°F3.5°C 37.7°F3.2°C 97% 1.6 mph S2.6 kmh S 3.1 mph5.0 kmh 30.24 in1024.0 mb 0.01 in0.3 mm 0.00 in0.0 mm 0.01 in0.3 mm
08:43 AM 38.3°F3.5°C 37.7°F3.2°C 97% 3.8 mph SE6.1 kmh SE 6.9 mph11.1 kmh 30.24 in1024.0 mb 0.01 in0.3 mm 0.00 in0.0 mm 0.01 in0.3 mm
08:44 AM 38.3°F3.5°C 37.7°F3.2°C 97% 3.1 mph S5.0 kmh S 4.5 mph7.2 kmh 30.24 in1024.0 mb 0.01 in0.3 mm 0.00 in0.0 mm 0.01 in0.3 mm
08:48 AM 38.3°F3.5°C 37.7°F3.2°C 97% 3.1 mph S5.0 kmh S 4.5 mph7.2 kmh 30.24 in1024.0 mb 0.01 in0.3 mm 0.00 in0.0 mm 0.01 in0.3 mm
08:53 AM 38.3°F3.5°C 37.7°F3.2°C 97% 2.2 mph S3.5 kmh S 4.5 mph7.2 kmh 30.24 in1024.0 mb 0.01 in0.3 mm 0.00 in0.0 mm 0.01 in0.3 mm
08:54 AM 38.3°F3.5°C 37.7°F3.2°C 97% 4.5 mph S7.2 kmh S 6.0 mph9.7 kmh 30.24 in1024.0 mb 0.01 in0.3 mm 0.00 in0.0 mm 0.01 in0.3 mm
08:59 AM 38.3°F3.5°C 37.7°F3.2°C 97% 1.6 mph SW2.6 kmh SW 3.1 mph5.0 kmh 30.24 in1024.0 mb 0.01 in0.3 mm 0.00 in0.0 mm 0.01 in0.3 mm
09:00 AM 38.3°F3.5°C 37.7°F3.2°C 97% 3.8 mph S6.1 kmh S 6.0 mph9.7 kmh 30.23 in1023.7 mb 0.01 in0.3 mm 0.00 in0.0 mm 0.01 in0.3 mm
09:04 AM 38.3°F3.5°C 37.7°F3.2°C 97% 0.7 mph E1.1 kmh E 1.6 mph2.6 kmh 30.24 in1024.0 mb 0.01 in0.3 mm 0.00 in0.0 mm 0.01 in0.3 mm
09:09 AM 38.3°F3.5°C 37.7°F3.2°C 97% 1.6 mph SE2.6 kmh SE 3.8 mph6.1 kmh 30.24 in1024.0 mb 0.01 in0.3 mm 0.00 in0.0 mm 0.01 in0.3 mm
09:10 AM 38.3°F3.5°C 37.7°F3.2°C 97% 0.7 mph S1.1 kmh S 2.2 mph3.5 kmh 30.24 in1024.0 mb 0.01 in0.3 mm 0.00 in0.0 mm 0.01 in0.3 mm
09:15 AM 38.3°F3.5°C 37.7°F3.2°C 97% 0.7 mph SW1.1 kmh SW 2.2 mph3.5 kmh 30.25 in1024.4 mb 0.01 in0.3 mm 0.00 in0.0 mm 0.01 in0.3 mm
09:16 AM 38.3°F3.5°C 37.7°F3.2°C 97% 1.6 mph S2.6 kmh S 2.2 mph3.5 kmh 30.24 in1024.0 mb 0.01 in0.3 mm 0.00 in0.0 mm 0.01 in0.3 mm
09:20 AM 38.3°F3.5°C 37.7°F3.2°C 97% 2.2 mph S3.5 kmh S 3.1 mph5.0 kmh 30.24 in1024.0 mb 0.01 in0.3 mm 0.00 in0.0 mm 0.01 in0.3 mm
09:25 AM 38.3°F3.5°C 37.7°F3.2°C 97% Calm Calm 1.6 mph2.6 kmh 30.24 in1024.0 mb 0.01 in0.3 mm 0.00 in0.0 mm 0.01 in0.3 mm
09:26 AM 38.3°F3.5°C 37.7°F3.2°C 97% Calm Calm 1.6 mph2.6 kmh 30.24 in1024.0 mb 0.01 in0.3 mm 0.00 in0.0 mm 0.01 in0.3 mm
09:31 AM 38.3°F3.5°C 37.7°F3.2°C 97% 3.1 mph SW5.0 kmh SW 4.5 mph7.2 kmh 30.24 in1024.0 mb 0.01 in0.3 mm 0.00 in0.0 mm 0.01 in0.3 mm
09:32 AM 38.3°F3.5°C 37.7°F3.2°C 97% 3.1 mph SW5.0 kmh SW 4.5 mph7.2 kmh 30.24 in1024.0 mb 0.01 in0.3 mm 0.00 in0.0 mm 0.01 in0.3 mm
09:36 AM 38.3°F3.5°C 37.7°F3.2°C 97% 1.6 mph S2.6 kmh S 3.1 mph5.0 kmh 30.24 in1024.0 mb 0.00 in0.0 mm 0.00 in0.0 mm 0.01 in0.3 mm
09:41 AM 38.3°F3.5°C 37.9°F3.3°C 98% 1.6 mph E2.6 kmh E 4.5 mph7.2 kmh 30.24 in1024.0 mb 0.00 in0.0 mm 0.00 in0.0 mm 0.01 in0.3 mm
09:42 AM 38.3°F3.5°C 37.9°F3.3°C 98% 3.8 mph S6.1 kmh S 5.4 mph8.7 kmh 30.24 in1024.0 mb 0.00 in0.0 mm 0.00 in0.0 mm 0.01 in0.3 mm
09:47 AM 38.1°F3.4°C 37.6°F3.1°C 97% 2.2 mph S3.5 kmh S 4.5 mph7.2 kmh 30.24 in1024.0 mb 0.00 in0.0 mm 0.00 in0.0 mm 0.01 in0.3 mm
09:48 AM 38.1°F3.4°C 37.6°F3.1°C 97% 3.8 mph S6.1 kmh S 6.0 mph9.7 kmh 30.24 in1024.0 mb 0.00 in0.0 mm 0.00 in0.0 mm 0.01 in0.3 mm
09:52 AM 38.1°F3.4°C 37.6°F3.1°C 97% 3.1 mph S5.0 kmh S 4.5 mph7.2 kmh 30.24 in1024.0 mb 0.00 in0.0 mm 0.00 in0.0 mm 0.01 in0.3 mm
09:57 AM 38.1°F3.4°C 37.6°F3.1°C 97% 3.1 mph SW5.0 kmh SW 4.5 mph7.2 kmh 30.24 in1024.0 mb 0.00 in0.0 mm 0.00 in0.0 mm 0.01 in0.3 mm
09:58 AM 38.1°F3.4°C 37.6°F3.1°C 97% 3.8 mph S6.1 kmh S 7.6 mph12.2 kmh 30.24 in1024.0 mb 0.00 in0.0 mm 0.00 in0.0 mm 0.01 in0.3 mm
10:03 AM 38.1°F3.4°C 37.6°F3.1°C 97% Calm Calm 1.6 mph2.6 kmh 30.24 in1024.0 mb 0.00 in0.0 mm 0.00 in0.0 mm 0.01 in0.3 mm
10:04 AM 38.1°F3.4°C 37.6°F3.1°C 97% 3.8 mph S6.1 kmh S 5.4 mph8.7 kmh 30.24 in1024.0 mb 0.00 in0.0 mm 0.00 in0.0 mm 0.01 in0.3 mm
10:08 AM 38.1°F3.4°C 37.6°F3.1°C 97% 2.2 mph E3.5 kmh E 4.5 mph7.2 kmh 30.24 in1024.0 mb 0.00 in0.0 mm 0.00 in0.0 mm 0.01 in0.3 mm
10:13 AM 38.1°F3.4°C 37.6°F3.1°C 97% 1.6 mph SW2.6 kmh SW 3.1 mph5.0 kmh 30.24 in1024.0 mb 0.00 in0.0 mm 0.00 in0.0 mm 0.01 in0.3 mm
10:14 AM 38.1°F3.4°C 37.6°F3.1°C 97% 1.6 mph SE2.6 kmh SE 2.2 mph3.5 kmh 30.24 in1024.0 mb 0.00 in0.0 mm 0.00 in0.0 mm 0.01 in0.3 mm
10:19 AM 38.1°F3.4°C 37.7°F3.2°C 98% 1.6 mph S2.6 kmh S 3.8 mph6.1 kmh 30.24 in1024.0 mb 0.00 in0.0 mm 0.00 in0.0 mm 0.01 in0.3 mm
10:20 AM 38.1°F3.4°C 37.6°F3.1°C 97% 1.6 mph S2.6 kmh S 3.1 mph5.0 kmh 30.24 in1024.0 mb 0.00 in0.0 mm 0.00 in0.0 mm 0.01 in0.3 mm
10:24 AM 38.3°F3.5°C 37.9°F3.3°C 98% 2.2 mph S3.5 kmh S 4.5 mph7.2 kmh 30.24 in1024.0 mb 0.00 in0.0 mm 0.00 in0.0 mm 0.01 in0.3 mm
10:29 AM 38.3°F3.5°C 37.9°F3.3°C 98% 2.2 mph S3.5 kmh S 5.4 mph8.7 kmh 30.24 in1024.0 mb 0.00 in0.0 mm 0.00 in0.0 mm 0.01 in0.3 mm
10:30 AM 38.3°F3.5°C 37.9°F3.3°C 98% 1.6 mph S2.6 kmh S 3.1 mph5.0 kmh 30.24 in1024.0 mb 0.00 in0.0 mm 0.00 in0.0 mm 0.01 in0.3 mm
10:35 AM 38.3°F3.5°C 37.9°F3.3°C 98% Calm Calm 2.2 mph3.5 kmh 30.24 in1024.0 mb 0.00 in0.0 mm 0.00 in0.0 mm 0.01 in0.3 mm
10:36 AM 38.3°F3.5°C 37.9°F3.3°C 98% 2.2 mph E3.5 kmh E 3.8 mph6.1 kmh 30.24 in1024.0 mb 0.00 in0.0 mm 0.00 in0.0 mm 0.01 in0.3 mm
10:40 AM 38.3°F3.5°C 37.9°F3.3°C 98% 3.1 mph SW5.0 kmh SW 4.5 mph7.2 kmh 30.23 in1023.7 mb 0.00 in0.0 mm 0.00 in0.0 mm 0.01 in0.3 mm
10:45 AM 38.5°F3.6°C 38.1°F3.4°C 98% 2.2 mph NE3.5 kmh NE 3.1 mph5.0 kmh 30.24 in1024.0 mb 0.00 in0.0 mm 0.00 in0.0 mm 0.01 in0.3 mm
10:46 AM 38.5°F3.6°C 38.1°F3.4°C 98% 2.2 mph NE3.5 kmh NE 3.1 mph5.0 kmh 30.24 in1024.0 mb 0.00 in0.0 mm 0.00 in0.0 mm 0.01 in0.3 mm
10:51 AM 38.5°F3.6°C 38.1°F3.4°C 98% 2.2 mph SE3.5 kmh SE 4.5 mph7.2 kmh 30.25 in1024.4 mb 0.00 in0.0 mm 0.00 in0.0 mm 0.01 in0.3 mm
10:52 AM 38.5°F3.6°C 38.1°F3.4°C 98% 2.2 mph SE3.5 kmh SE 4.5 mph7.2 kmh 30.25 in1024.4 mb 0.00 in0.0 mm 0.00 in0.0 mm 0.01 in0.3 mm
10:56 AM 38.5°F3.6°C 38.1°F3.4°C 98% 3.1 mph SE5.0 kmh SE 5.4 mph8.7 kmh 30.25 in1024.4 mb 0.00 in0.0 mm 0.00 in0.0 mm 0.01 in0.3 mm
11:01 AM 38.5°F3.6°C 38.1°F3.4°C 98% 1.6 mph S2.6 kmh S 3.1 mph5.0 kmh 30.25 in1024.4 mb 0.00 in0.0 mm 0.00 in0.0 mm 0.01 in0.3 mm
11:02 AM 38.5°F3.6°C 38.1°F3.4°C 98% 3.1 mph S5.0 kmh S 5.4 mph8.7 kmh 30.24 in1024.0 mb 0.00 in0.0 mm 0.00 in0.0 mm 0.01 in0.3 mm
11:07 AM 38.7°F3.7°C 38.3°F3.5°C 98% 1.6 mph NE2.6 kmh NE 3.8 mph6.1 kmh 30.24 in1024.0 mb 0.00 in0.0 mm 0.00 in0.0 mm 0.01 in0.3 mm
11:08 AM 38.7°F3.7°C 38.3°F3.5°C 98% 1.6 mph SE2.6 kmh SE 4.5 mph7.2 kmh 30.24 in1024.0 mb 0.00 in0.0 mm 0.00 in0.0 mm 0.01 in0.3 mm
11:12 AM 38.7°F3.7°C 38.3°F3.5°C 98% 1.6 mph SE2.6 kmh SE 2.2 mph3.5 kmh 30.24 in1024.0 mb 0.00 in0.0 mm 0.00 in0.0 mm 0.01 in0.3 mm
11:17 AM 38.8°F3.8°C 38.5°F3.6°C 98% 2.2 mph S3.5 kmh S 3.8 mph6.1 kmh 30.24 in1024.0 mb 0.00 in0.0 mm 0.00 in0.0 mm 0.01 in0.3 mm
11:18 AM 38.8°F3.8°C 38.5°F3.6°C 98% 1.6 mph S2.6 kmh S 3.1 mph5.0 kmh 30.24 in1024.0 mb 0.00 in0.0 mm 0.00 in0.0 mm 0.01 in0.3 mm
11:23 AM 39.0°F3.9°C 38.6°F3.7°C 98% 3.8 mph S6.1 kmh S 5.4 mph8.7 kmh 30.24 in1024.0 mb 0.00 in0.0 mm 0.00 in0.0 mm 0.01 in0.3 mm
11:24 AM 38.8°F3.8°C 38.5°F3.6°C 98% 1.6 mph SE2.6 kmh SE 3.8 mph6.1 kmh 30.24 in1024.0 mb 0.00 in0.0 mm 0.00 in0.0 mm 0.01 in0.3 mm
11:28 AM 39.0°F3.9°C 38.6°F3.7°C 98% 1.6 mph SW2.6 kmh SW 3.8 mph6.1 kmh 30.24 in1024.0 mb 0.00 in0.0 mm 0.00 in0.0 mm 0.01 in0.3 mm
11:33 AM 39.0°F3.9°C 38.6°F3.7°C 98% 3.1 mph S5.0 kmh S 6.0 mph9.7 kmh 30.24 in1024.0 mb 0.00 in0.0 mm 0.00 in0.0 mm 0.01 in0.3 mm
11:34 AM 39.0°F3.9°C 38.6°F3.7°C 98% 0.7 mph S1.1 kmh S 2.2 mph3.5 kmh 30.24 in1024.0 mb 0.00 in0.0 mm 0.00 in0.0 mm 0.01 in0.3 mm
11:39 AM 39.0°F3.9°C 38.6°F3.7°C 98% 3.1 mph S5.0 kmh S 3.8 mph6.1 kmh 30.24 in1024.0 mb 0.00 in0.0 mm 0.00 in0.0 mm 0.01 in0.3 mm
11:40 AM 39.0°F3.9°C 38.6°F3.7°C 98% 3.1 mph WSW5.0 kmh WSW 5.4 mph8.7 kmh 30.23 in1023.7 mb 0.00 in0.0 mm 0.00 in0.0 mm 0.01 in0.3 mm
11:44 AM 39.0°F3.9°C 38.6°F3.7°C 98% 3.1 mph SE5.0 kmh SE 6.9 mph11.1 kmh 30.24 in1024.0 mb 0.00 in0.0 mm 0.00 in0.0 mm 0.01 in0.3 mm
11:49 AM 39.0°F3.9°C 38.6°F3.7°C 98% 1.6 mph S2.6 kmh S 3.1 mph5.0 kmh 30.24 in1024.0 mb 0.00 in0.0 mm 0.00 in0.0 mm 0.01 in0.3 mm
11:50 AM 39.0°F3.9°C 38.6°F3.7°C 98% 2.2 mph SW3.5 kmh SW 5.4 mph8.7 kmh 30.24 in1024.0 mb 0.00 in0.0 mm 0.00 in0.0 mm 0.01 in0.3 mm
11:55 AM 39.2°F4.0°C 38.6°F3.7°C 97% 0.7 mph E1.1 kmh E 2.2 mph3.5 kmh 30.24 in1024.0 mb 0.00 in0.0 mm 0.00 in0.0 mm 0.01 in0.3 mm
11:56 AM 39.0°F3.9°C 38.6°F3.7°C 98% 3.8 mph S6.1 kmh S 6.0 mph9.7 kmh 30.24 in1024.0 mb 0.00 in0.0 mm 0.00 in0.0 mm 0.01 in0.3 mm
12:00 PM 39.2°F4.0°C 38.6°F3.7°C 97% 2.2 mph S3.5 kmh S 4.5 mph7.2 kmh 30.24 in1024.0 mb 0.00 in0.0 mm 0.00 in0.0 mm 0.01 in0.3 mm
12:05 PM 39.2°F4.0°C 38.6°F3.7°C 97% 3.8 mph S6.1 kmh S 6.0 mph9.7 kmh 30.24 in1024.0 mb 0.00 in0.0 mm 0.00 in0.0 mm 0.01 in0.3 mm
12:06 PM 39.2°F4.0°C 38.6°F3.7°C 97% 3.8 mph S6.1 kmh S 6.0 mph9.7 kmh 30.24 in1024.0 mb 0.00 in0.0 mm 0.00 in0.0 mm 0.01 in0.3 mm
12:11 PM 39.2°F4.0°C 38.6°F3.7°C 97% 0.7 mph S1.1 kmh S 3.1 mph5.0 kmh 30.24 in1024.0 mb 0.00 in0.0 mm 0.00 in0.0 mm 0.01 in0.3 mm
12:12 PM 39.2°F4.0°C 38.6°F3.7°C 97% 0.7 mph S1.1 kmh S 3.1 mph5.0 kmh 30.24 in1024.0 mb 0.00 in0.0 mm 0.00 in0.0 mm 0.01 in0.3 mm
12:16 PM 39.4°F4.1°C 38.8°F3.8°C 97% 1.6 mph NW2.6 kmh NW 3.1 mph5.0 kmh 30.24 in1024.0 mb 0.00 in0.0 mm 0.00 in0.0 mm 0.01 in0.3 mm
12:21 PM 39.4°F4.1°C 38.8°F3.8°C 97% 0.7 mph SW1.1 kmh SW 2.2 mph3.5 kmh 30.24 in1024.0 mb 0.00 in0.0 mm 0.00 in0.0 mm 0.01 in0.3 mm
12:22 PM 39.4°F4.1°C 38.8°F3.8°C 97% 0.7 mph SE1.1 kmh SE 2.2 mph3.5 kmh 30.24 in1024.0 mb 0.00 in0.0 mm 0.00 in0.0 mm 0.01 in0.3 mm
12:27 PM 39.6°F4.2°C 39.0°F3.9°C 97% 1.6 mph SE2.6 kmh SE 3.1 mph5.0 kmh 30.24 in1024.0 mb 0.00 in0.0 mm 0.00 in0.0 mm 0.01 in0.3 mm
12:28 PM 39.6°F4.2°C 39.0°F3.9°C 97% 2.2 mph SW3.5 kmh SW 4.5 mph7.2 kmh 30.24 in1024.0 mb 0.00 in0.0 mm 0.00 in0.0 mm 0.01 in0.3 mm
12:32 PM 39.6°F4.2°C 39.0°F3.9°C 97% 2.2 mph S3.5 kmh S 4.5 mph7.2 kmh 30.24 in1024.0 mb 0.00 in0.0 mm 0.00 in0.0 mm 0.01 in0.3 mm
12:37 PM 39.7°F4.3°C 39.2°F4.0°C 97% 1.6 mph S2.6 kmh S 3.8 mph6.1 kmh 30.24 in1024.0 mb 0.00 in0.0 mm 0.00 in0.0 mm 0.01 in0.3 mm
12:38 PM 39.7°F4.3°C 39.2°F4.0°C 97% 0.7 mph SE1.1 kmh SE 2.2 mph3.5 kmh 30.24 in1024.0 mb 0.00 in0.0 mm 0.00 in0.0 mm 0.01 in0.3 mm
12:43 PM 39.7°F4.3°C 39.2°F4.0°C 97% 1.6 mph E2.6 kmh E 3.1 mph5.0 kmh 30.24 in1024.0 mb 0.00 in0.0 mm 0.00 in0.0 mm 0.01 in0.3 mm
12:44 PM 39.7°F4.3°C 39.2°F4.0°C 97% 2.2 mph S3.5 kmh S 3.1 mph5.0 kmh 30.24 in1024.0 mb 0.00 in0.0 mm 0.00 in0.0 mm 0.01 in0.3 mm
12:48 PM 39.9°F4.4°C 39.3°F4.1°C 97% 1.6 mph S2.6 kmh S 2.2 mph3.5 kmh 30.24 in1024.0 mb 0.00 in0.0 mm 0.00 in0.0 mm 0.01 in0.3 mm
12:53 PM 39.9°F4.4°C 39.3°F4.1°C 97% 2.2 mph S3.5 kmh S 4.5 mph7.2 kmh 30.24 in1024.0 mb 0.00 in0.0 mm 0.00 in0.0 mm 0.01 in0.3 mm
12:54 PM 39.9°F4.4°C 39.3°F4.1°C 97% 1.6 mph S2.6 kmh S 3.8 mph6.1 kmh 30.24 in1024.0 mb 0.00 in0.0 mm 0.00 in0.0 mm 0.01 in0.3 mm
12:59 PM 39.9°F4.4°C 39.3°F4.1°C 97% 1.6 mph SE2.6 kmh SE 3.1 mph5.0 kmh 30.23 in1023.7 mb 0.00 in0.0 mm 0.00 in0.0 mm 0.01 in0.3 mm
01:00 PM 39.9°F4.4°C 39.3°F4.1°C 97% 3.8 mph SE6.1 kmh SE 6.0 mph9.7 kmh 30.24 in1024.0 mb 0.00 in0.0 mm 0.00 in0.0 mm 0.01 in0.3 mm
01:04 PM 39.9°F4.4°C 39.3°F4.1°C 97% 2.2 mph SE3.5 kmh SE 5.4 mph8.7 kmh 30.23 in1023.7 mb 0.00 in0.0 mm 0.00 in0.0 mm 0.01 in0.3 mm
01:09 PM 39.9°F4.4°C 39.3°F4.1°C 97% 1.6 mph NE2.6 kmh NE 3.1 mph5.0 kmh 30.23 in1023.7 mb 0.00 in0.0 mm 0.00 in0.0 mm 0.01 in0.3 mm
01:10 PM 40.1°F4.5°C 39.5°F4.2°C 97% 3.8 mph SE6.1 kmh SE 6.0 mph9.7 kmh 30.24 in1024.0 mb 0.00 in0.0 mm 0.00 in0.0 mm 0.01 in0.3 mm
01:15 PM 40.1°F4.5°C 39.5°F4.2°C 97% 1.6 mph SE2.6 kmh SE 4.5 mph7.2 kmh 30.24 in1024.0 mb 0.00 in0.0 mm 0.00 in0.0 mm 0.01 in0.3 mm
01:16 PM 40.1°F4.5°C 39.5°F4.2°C 97% 3.1 mph S5.0 kmh S 4.5 mph7.2 kmh 30.24 in1024.0 mb 0.00 in0.0 mm 0.00 in0.0 mm 0.01 in0.3 mm
01:20 PM 40.3°F4.6°C 39.7°F4.3°C 97% Calm Calm 1.6 mph2.6 kmh 30.24 in1024.0 mb 0.00 in0.0 mm 0.00 in0.0 mm 0.01 in0.3 mm
01:25 PM 40.3°F4.6°C 39.7°F4.3°C 97% 1.6 mph SSW2.6 kmh SSW 4.5 mph7.2 kmh 30.23 in1023.7 mb 0.00 in0.0 mm 0.00 in0.0 mm 0.01 in0.3 mm
01:26 PM 40.3°F4.6°C 39.7°F4.3°C 97% 1.6 mph SSW2.6 kmh SSW 4.5 mph7.2 kmh 30.23 in1023.7 mb 0.00 in0.0 mm 0.00 in0.0 mm 0.01 in0.3 mm
01:31 PM 40.3°F4.6°C 39.7°F4.3°C 97% 2.2 mph S3.5 kmh S 3.8 mph6.1 kmh 30.24 in1024.0 mb 0.00 in0.0 mm 0.00 in0.0 mm 0.01 in0.3 mm
01:32 PM 40.3°F4.6°C 39.7°F4.3°C 97% 2.2 mph S3.5 kmh S 3.8 mph6.1 kmh 30.24 in1024.0 mb 0.00 in0.0 mm 0.00 in0.0 mm 0.01 in0.3 mm
01:36 PM 40.3°F4.6°C 39.7°F4.3°C 97% 0.7 mph SE1.1 kmh SE 1.6 mph2.6 kmh 30.23 in1023.7 mb 0.00 in0.0 mm 0.00 in0.0 mm 0.01 in0.3 mm
01:41 PM 40.5°F4.7°C 39.9°F4.4°C 97% 1.6 mph SE2.6 kmh SE 3.1 mph5.0 kmh 30.24 in1024.0 mb 0.00 in0.0 mm 0.00 in0.0 mm 0.01 in0.3 mm
01:42 PM 40.5°F4.7°C 39.9°F4.4°C 97% 0.7 mph SE1.1 kmh SE 2.2 mph3.5 kmh 30.23 in1023.7 mb 0.00 in0.0 mm 0.00 in0.0 mm 0.01 in0.3 mm
01:47 PM 40.5°F4.7°C 39.9°F4.4°C 97% 0.7 mph S1.1 kmh S 2.2 mph3.5 kmh 30.24 in1024.0 mb 0.00 in0.0 mm 0.00 in0.0 mm 0.01 in0.3 mm
01:48 PM 40.5°F4.7°C 39.9°F4.4°C 97% 0.7 mph SW1.1 kmh SW 2.2 mph3.5 kmh 30.24 in1024.0 mb 0.00 in0.0 mm 0.00 in0.0 mm 0.01 in0.3 mm
01:52 PM 40.5°F4.7°C 39.9°F4.4°C 97% 1.6 mph SE2.6 kmh SE 3.1 mph5.0 kmh 30.24 in1024.0 mb 0.00 in0.0 mm 0.00 in0.0 mm 0.01 in0.3 mm
01:57 PM 40.5°F4.7°C 39.9°F4.4°C 97% 1.6 mph NE2.6 kmh NE 3.1 mph5.0 kmh 30.23 in1023.7 mb 0.00 in0.0 mm 0.00 in0.0 mm 0.01 in0.3 mm
02:02 PM 40.6°F4.8°C 40.1°F4.5°C 97% Calm Calm 0.7 mph1.1 kmh 30.24 in1024.0 mb 0.00 in0.0 mm 0.00 in0.0 mm 0.01 in0.3 mm
02:07 PM 40.8°F4.9°C 40.4°F4.7°C 98% 1.6 mph NE2.6 kmh NE 3.8 mph6.1 kmh 30.24 in1024.0 mb 0.00 in0.0 mm 0.00 in0.0 mm 0.01 in0.3 mm
02:12 PM 40.6°F4.8°C 40.3°F4.6°C 98% Calm Calm 0.7 mph1.1 kmh 30.24 in1024.0 mb 0.00 in0.0 mm 0.00 in0.0 mm 0.01 in0.3 mm
02:17 PM 40.8°F4.9°C 40.4°F4.7°C 98% Calm Calm 1.6 mph2.6 kmh 30.24 in1024.0 mb 0.00 in0.0 mm 0.00 in0.0 mm 0.01 in0.3 mm
02:22 PM 41.0°F5.0°C 40.4°F4.7°C 97% 0.7 mph NE1.1 kmh NE 2.2 mph3.5 kmh 30.23 in1023.7 mb 0.00 in0.0 mm 0.00 in0.0 mm 0.01 in0.3 mm
02:27 PM 41.0°F5.0°C 40.4°F4.7°C 97% 3.1 mph E5.0 kmh E 4.5 mph7.2 kmh 30.24 in1024.0 mb 0.00 in0.0 mm 0.00 in0.0 mm 0.01 in0.3 mm
02:32 PM 41.0°F5.0°C 40.4°F4.7°C 97% 0.7 mph SE1.1 kmh SE 3.8 mph6.1 kmh 30.24 in1024.0 mb 0.00 in0.0 mm 0.00 in0.0 mm 0.01 in0.3 mm
02:37 PM 41.0°F5.0°C 40.4°F4.7°C 97% 1.6 mph S2.6 kmh S 3.1 mph5.0 kmh 30.24 in1024.0 mb 0.00 in0.0 mm 0.00 in0.0 mm 0.01 in0.3 mm
02:42 PM 41.0°F5.0°C 40.4°F4.7°C 97% 2.2 mph E3.5 kmh E 3.8 mph6.1 kmh 30.23 in1023.7 mb 0.00 in0.0 mm 0.00 in0.0 mm 0.01 in0.3 mm
02:47 PM 41.0°F5.0°C 40.4°F4.7°C 97% Calm Calm 0.7 mph1.1 kmh 30.23 in1023.7 mb 0.00 in0.0 mm 0.00 in0.0 mm 0.01 in0.3 mm
02:52 PM 41.0°F5.0°C 40.4°F4.7°C 97% 0.7 mph SE1.1 kmh SE 1.6 mph2.6 kmh 30.23 in1023.7 mb 0.00 in0.0 mm 0.00 in0.0 mm 0.01 in0.3 mm
02:57 PM 41.0°F5.0°C 40.4°F4.7°C 97% Calm Calm 1.6 mph2.6 kmh 30.23 in1023.7 mb 0.00 in0.0 mm 0.00 in0.0 mm 0.01 in0.3 mm
03:02 PM 41.0°F5.0°C 40.4°F4.7°C 97% 2.2 mph W3.5 kmh W 3.1 mph5.0 kmh 30.23 in1023.7 mb 0.00 in0.0 mm 0.00 in0.0 mm 0.01 in0.3 mm
03:07 PM 41.0°F5.0°C 40.4°F4.7°C 97% 1.6 mph SE2.6 kmh SE 4.5 mph7.2 kmh 30.23 in1023.7 mb 0.00 in0.0 mm 0.00 in0.0 mm 0.01 in0.3 mm
03:12 PM 41.0°F5.0°C 40.4°F4.7°C 97% 2.2 mph SE3.5 kmh SE 4.5 mph7.2 kmh 30.23 in1023.7 mb 0.00 in0.0 mm 0.00 in0.0 mm 0.01 in0.3 mm
03:17 PM 41.0°F5.0°C 40.4°F4.7°C 97% 0.7 mph NE1.1 kmh NE 2.2 mph3.5 kmh 30.23 in1023.7 mb 0.00 in0.0 mm 0.00 in0.0 mm 0.01 in0.3 mm
03:22 PM 41.0°F5.0°C 40.4°F4.7°C 97% 0.7 mph SE1.1 kmh SE 2.2 mph3.5 kmh 30.23 in1023.7 mb 0.00 in0.0 mm 0.00 in0.0 mm 0.01 in0.3 mm
03:27 PM 41.0°F5.0°C 40.4°F4.7°C 97% 0.7 mph S1.1 kmh S 2.2 mph3.5 kmh 30.23 in1023.7 mb 0.00 in0.0 mm 0.00 in0.0 mm 0.01 in0.3 mm
03:32 PM 41.0°F5.0°C 40.4°F4.7°C 97% 0.7 mph NE1.1 kmh NE 2.2 mph3.5 kmh 30.23 in1023.7 mb 0.00 in0.0 mm 0.00 in0.0 mm 0.01 in0.3 mm
03:37 PM 40.8°F4.9°C 40.2°F4.6°C 97% Calm Calm 1.6 mph2.6 kmh 30.23 in1023.7 mb 0.00 in0.0 mm 0.00 in0.0 mm 0.01 in0.3 mm
03:42 PM 41.0°F5.0°C 40.2°F4.6°C 96% Calm Calm 1.6 mph2.6 kmh 30.24 in1024.0 mb 0.00 in0.0 mm 0.00 in0.0 mm 0.01 in0.3 mm
03:47 PM 40.8°F4.9°C 40.2°F4.6°C 97% 0.7 mph SE1.1 kmh SE 1.6 mph2.6 kmh 30.24 in1024.0 mb 0.00 in0.0 mm 0.00 in0.0 mm 0.01 in0.3 mm
03:52 PM 40.8°F4.9°C 40.2°F4.6°C 97% 1.6 mph E2.6 kmh E 3.1 mph5.0 kmh 30.24 in1024.0 mb 0.00 in0.0 mm 0.00 in0.0 mm 0.01 in0.3 mm
03:57 PM 40.8°F4.9°C 40.2°F4.6°C 97% 0.7 mph SE1.1 kmh SE 2.2 mph3.5 kmh 30.24 in1024.0 mb 0.00 in0.0 mm 0.00 in0.0 mm 0.01 in0.3 mm
04:02 PM 40.8°F4.9°C 40.2°F4.6°C 97% 1.6 mph S2.6 kmh S 3.8 mph6.1 kmh 30.24 in1024.0 mb 0.00 in0.0 mm 0.00 in0.0 mm 0.01 in0.3 mm
04:07 PM 40.8°F4.9°C 40.2°F4.6°C 97% 0.7 mph E1.1 kmh E 2.2 mph3.5 kmh 30.24 in1024.0 mb 0.00 in0.0 mm 0.00 in0.0 mm 0.01 in0.3 mm
04:12 PM 40.8°F4.9°C 40.2°F4.6°C 97% 0.7 mph SW1.1 kmh SW 1.6 mph2.6 kmh 30.24 in1024.0 mb 0.00 in0.0 mm 0.00 in0.0 mm 0.01 in0.3 mm
04:17 PM 40.8°F4.9°C 40.2°F4.6°C 97% 1.6 mph S2.6 kmh S 3.1 mph5.0 kmh 30.24 in1024.0 mb 0.00 in0.0 mm 0.00 in0.0 mm 0.01 in0.3 mm
04:22 PM 40.8°F4.9°C 40.2°F4.6°C 97% 0.7 mph E1.1 kmh E 1.6 mph2.6 kmh 30.25 in1024.4 mb 0.00 in0.0 mm 0.00 in0.0 mm 0.01 in0.3 mm
04:27 PM 40.8°F4.9°C 40.2°F4.6°C 97% 0.7 mph S1.1 kmh S 2.2 mph3.5 kmh 30.24 in1024.0 mb 0.00 in0.0 mm 0.00 in0.0 mm 0.01 in0.3 mm
04:32 PM 40.8°F4.9°C 40.2°F4.6°C 97% 0.7 mph SE1.1 kmh SE 2.2 mph3.5 kmh 30.25 in1024.4 mb 0.00 in0.0 mm 0.00 in0.0 mm 0.01 in0.3 mm
04:37 PM 40.8°F4.9°C 40.2°F4.6°C 97% 0.7 mph E1.1 kmh E 1.6 mph2.6 kmh 30.24 in1024.0 mb 0.00 in0.0 mm 0.00 in0.0 mm 0.01 in0.3 mm
04:42 PM 40.8°F4.9°C 40.2°F4.6°C 97% Calm Calm 0.7 mph1.1 kmh 30.25 in1024.4 mb 0.00 in0.0 mm 0.00 in0.0 mm 0.01 in0.3 mm
04:47 PM 40.8°F4.9°C 40.2°F4.6°C 97% 1.6 mph SE2.6 kmh SE 2.2 mph3.5 kmh 30.25 in1024.4 mb 0.00 in0.0 mm 0.00 in0.0 mm 0.01 in0.3 mm
04:52 PM 40.8°F4.9°C 40.2°F4.6°C 97% Calm Calm 1.6 mph2.6 kmh 30.25 in1024.4 mb 0.00 in0.0 mm 0.00 in0.0 mm 0.01 in0.3 mm
04:57 PM 40.8°F4.9°C 40.2°F4.6°C 97% 1.6 mph E2.6 kmh E 3.8 mph6.1 kmh 30.25 in1024.4 mb 0.00 in0.0 mm 0.00 in0.0 mm 0.01 in0.3 mm
05:02 PM 40.8°F4.9°C 40.2°F4.6°C 97% 0.7 mph S1.1 kmh S 1.6 mph2.6 kmh 30.25 in1024.4 mb 0.00 in0.0 mm 0.00 in0.0 mm 0.01 in0.3 mm
05:07 PM 40.8°F4.9°C 40.2°F4.6°C 97% Calm Calm 0.7 mph1.1 kmh 30.25 in1024.4 mb 0.00 in0.0 mm 0.00 in0.0 mm 0.01 in0.3 mm
05:12 PM 40.8°F4.9°C 40.2°F4.6°C 97% 0.7 mph E1.1 kmh E 1.6 mph2.6 kmh 30.25 in1024.4 mb 0.00 in0.0 mm 0.00 in0.0 mm 0.01 in0.3 mm
05:17 PM 40.8°F4.9°C 40.2°F4.6°C 97% Calm Calm 2.2 mph3.5 kmh 30.25 in1024.4 mb 0.00 in0.0 mm 0.00 in0.0 mm 0.01 in0.3 mm
05:22 PM 40.8°F4.9°C 40.2°F4.6°C 97% 0.7 mph E1.1 kmh E 2.2 mph3.5 kmh 30.25 in1024.4 mb 0.00 in0.0 mm 0.00 in0.0 mm 0.01 in0.3 mm
05:27 PM 40.8°F4.9°C 40.2°F4.6°C 97% Calm Calm 0.7 mph1.1 kmh 30.25 in1024.4 mb 0.00 in0.0 mm 0.00 in0.0 mm 0.01 in0.3 mm
05:32 PM 40.8°F4.9°C 40.2°F4.6°C 97% Calm Calm -- 30.24 in1024.0 mb 0.00 in0.0 mm 0.00 in0.0 mm 0.01 in0.3 mm
05:37 PM 40.8°F4.9°C 40.2°F4.6°C 97% 0.7 mph SE1.1 kmh SE 3.1 mph5.0 kmh 30.25 in1024.4 mb 0.00 in0.0 mm 0.00 in0.0 mm 0.01 in0.3 mm
05:42 PM 40.8°F4.9°C 40.2°F4.6°C 97% 0.7 mph S1.1 kmh S 2.2 mph3.5 kmh 30.25 in1024.4 mb 0.00 in0.0 mm 0.00 in0.0 mm 0.01 in0.3 mm
05:47 PM 40.8°F4.9°C 40.2°F4.6°C 97% Calm Calm 0.7 mph1.1 kmh 30.24 in1024.0 mb 0.00 in0.0 mm 0.00 in0.0 mm 0.01 in0.3 mm
05:52 PM 40.8°F4.9°C 40.2°F4.6°C 97% Calm Calm 1.6 mph2.6 kmh 30.25 in1024.4 mb 0.00 in0.0 mm 0.00 in0.0 mm 0.01 in0.3 mm
05:57 PM 40.8°F4.9°C 40.2°F4.6°C 97% 0.7 mph NE1.1 kmh NE 1.6 mph2.6 kmh 30.24 in1024.0 mb 0.00 in0.0 mm 0.00 in0.0 mm 0.01 in0.3 mm
06:02 PM 40.8°F4.9°C 40.2°F4.6°C 97% 1.6 mph E2.6 kmh E 3.1 mph5.0 kmh 30.24 in1024.0 mb 0.00 in0.0 mm 0.00 in0.0 mm 0.01 in0.3 mm
06:07 PM 40.8°F4.9°C 40.2°F4.6°C 97% 0.7 mph NE1.1 kmh NE 1.6 mph2.6 kmh 30.24 in1024.0 mb 0.00 in0.0 mm 0.00 in0.0 mm 0.01 in0.3 mm
06:12 PM 40.8°F4.9°C 40.2°F4.6°C 97% Calm Calm 0.7 mph1.1 kmh 30.24 in1024.0 mb 0.00 in0.0 mm 0.00 in0.0 mm 0.01 in0.3 mm
06:17 PM 40.8°F4.9°C 40.2°F4.6°C 97% 0.7 mph NE1.1 kmh NE 3.8 mph6.1 kmh 30.25 in1024.4 mb 0.00 in0.0 mm 0.00 in0.0 mm 0.01 in0.3 mm
06:22 PM 40.8°F4.9°C 40.2°F4.6°C 97% Calm Calm 2.2 mph3.5 kmh 30.24 in1024.0 mb 0.00 in0.0 mm 0.00 in0.0 mm 0.01 in0.3 mm
06:27 PM 40.8°F4.9°C 40.2°F4.6°C 97% Calm Calm 1.6 mph2.6 kmh 30.24 in1024.0 mb 0.00 in0.0 mm 0.00 in0.0 mm 0.01 in0.3 mm
06:32 PM 40.8°F4.9°C 40.2°F4.6°C 97% 1.6 mph E2.6 kmh E 2.2 mph3.5 kmh 30.24 in1024.0 mb 0.00 in0.0 mm 0.00 in0.0 mm 0.01 in0.3 mm
06:37 PM 40.8°F4.9°C 40.2°F4.6°C 97% Calm Calm 0.7 mph1.1 kmh 30.24 in1024.0 mb 0.00 in0.0 mm 0.00 in0.0 mm 0.01 in0.3 mm
06:42 PM 40.8°F4.9°C 40.2°F4.6°C 97% Calm Calm 0.7 mph1.1 kmh 30.24 in1024.0 mb 0.00 in0.0 mm 0.00 in0.0 mm 0.01 in0.3 mm
06:47 PM 40.8°F4.9°C 40.2°F4.6°C 97% 0.7 mph SE1.1 kmh SE 2.2 mph3.5 kmh 30.24 in1024.0 mb 0.00 in0.0 mm 0.00 in0.0 mm 0.01 in0.3 mm
06:52 PM 40.8°F4.9°C 40.2°F4.6°C 97% Calm Calm -- 30.24 in1024.0 mb 0.00 in0.0 mm 0.00 in0.0 mm 0.01 in0.3 mm
06:57 PM 40.8°F4.9°C 40.2°F4.6°C 97% 0.7 mph NE1.1 kmh NE 2.2 mph3.5 kmh 30.24 in1024.0 mb 0.00 in0.0 mm 0.00 in0.0 mm 0.01 in0.3 mm
07:02 PM 40.8°F4.9°C 40.2°F4.6°C 97% Calm Calm -- 30.24 in1024.0 mb 0.00 in0.0 mm 0.00 in0.0 mm 0.01 in0.3 mm
07:07 PM 40.8°F4.9°C 40.2°F4.6°C 97% 1.6 mph SE2.6 kmh SE 3.1 mph5.0 kmh 30.24 in1024.0 mb 0.00 in0.0 mm 0.00 in0.0 mm 0.01 in0.3 mm
07:12 PM 40.8°F4.9°C 40.2°F4.6°C 97% 1.6 mph E2.6 kmh E 3.1 mph5.0 kmh 30.24 in1024.0 mb 0.00 in0.0 mm 0.00 in0.0 mm 0.01 in0.3 mm
07:17 PM 40.8°F4.9°C 40.2°F4.6°C 97% Calm Calm -- 30.23 in1023.7 mb 0.00 in0.0 mm 0.00 in0.0 mm 0.01 in0.3 mm
07:22 PM 40.8°F4.9°C 40.2°F4.6°C 97% 0.7 mph 1.1 kmh 2.2 mph3.5 kmh 30.23 in1023.7 mb 0.00 in0.0 mm 0.00 in0.0 mm 0.01 in0.3 mm
07:27 PM 40.6°F4.8°C 40.1°F4.5°C 97% 0.7 mph E1.1 kmh E 3.1 mph5.0 kmh 30.23 in1023.7 mb 0.00 in0.0 mm 0.00 in0.0 mm 0.01 in0.3 mm
07:32 PM 40.6°F4.8°C 40.1°F4.5°C 97% 1.6 mph NE2.6 kmh NE 3.8 mph6.1 kmh 30.23 in1023.7 mb 0.00 in0.0 mm 0.00 in0.0 mm 0.01 in0.3 mm
07:37 PM 40.6°F4.8°C 40.1°F4.5°C 97% 1.6 mph NE2.6 kmh NE 2.2 mph3.5 kmh 30.23 in1023.7 mb 0.00 in0.0 mm 0.00 in0.0 mm 0.01 in0.3 mm
07:42 PM 40.6°F4.8°C 40.1°F4.5°C 97% 1.6 mph SE2.6 kmh SE 3.1 mph5.0 kmh 30.23 in1023.7 mb 0.00 in0.0 mm 0.00 in0.0 mm 0.01 in0.3 mm
07:47 PM 40.8°F4.9°C 40.4°F4.7°C 98% Calm Calm 0.7 mph1.1 kmh 30.23 in1023.7 mb 0.00 in0.0 mm 0.00 in0.0 mm 0.01 in0.3 mm
07:52 PM 40.8°F4.9°C 40.4°F4.7°C 98% 0.7 mph SW1.1 kmh SW 2.2 mph3.5 kmh 30.23 in1023.7 mb 0.00 in0.0 mm 0.00 in0.0 mm 0.01 in0.3 mm
07:57 PM 40.8°F4.9°C 40.4°F4.7°C 98% 0.7 mph S1.1 kmh S 3.1 mph5.0 kmh 30.23 in1023.7 mb 0.00 in0.0 mm 0.00 in0.0 mm 0.01 in0.3 mm
08:02 PM 40.8°F4.9°C 40.4°F4.7°C 98% 1.6 mph SE2.6 kmh SE 2.2 mph3.5 kmh 30.23 in1023.7 mb 0.00 in0.0 mm 0.00 in0.0 mm 0.01 in0.3 mm
08:07 PM 40.8°F4.9°C 40.4°F4.7°C 98% 2.2 mph SE3.5 kmh SE 3.1 mph5.0 kmh 30.23 in1023.7 mb 0.00 in0.0 mm 0.00 in0.0 mm 0.01 in0.3 mm
08:12 PM 40.8°F4.9°C 40.4°F4.7°C 98% Calm Calm 1.6 mph2.6 kmh 30.22 in1023.4 mb 0.00 in0.0 mm 0.00 in0.0 mm 0.01 in0.3 mm
08:17 PM 40.8°F4.9°C 40.4°F4.7°C 98% 2.2 mph NE3.5 kmh NE 3.8 mph6.1 kmh 30.22 in1023.4 mb 0.00 in0.0 mm 0.00 in0.0 mm 0.01 in0.3 mm
08:22 PM 40.8°F4.9°C 40.4°F4.7°C 98% 2.2 mph E3.5 kmh E 3.8 mph6.1 kmh 30.23 in1023.7 mb 0.00 in0.0 mm 0.00 in0.0 mm 0.01 in0.3 mm
08:27 PM 40.8°F4.9°C 40.4°F4.7°C 98% 2.2 mph E3.5 kmh E 3.8 mph6.1 kmh 30.22 in1023.4 mb 0.00 in0.0 mm 0.00 in0.0 mm 0.01 in0.3 mm
08:32 PM 40.8°F4.9°C 40.4°F4.7°C 98% Calm Calm 1.6 mph2.6 kmh 30.22 in1023.4 mb 0.00 in0.0 mm 0.00 in0.0 mm 0.01 in0.3 mm
08:37 PM 40.8°F4.9°C 40.4°F4.7°C 98% Calm Calm 1.6 mph2.6 kmh 30.22 in1023.4 mb 0.00 in0.0 mm 0.00 in0.0 mm 0.01 in0.3 mm
08:42 PM 40.8°F4.9°C 40.4°F4.7°C 98% 2.2 mph SE3.5 kmh SE 3.1 mph5.0 kmh 30.22 in1023.4 mb 0.00 in0.0 mm 0.00 in0.0 mm 0.01 in0.3 mm
08:47 PM 40.6°F4.8°C 40.3°F4.6°C 98% Calm Calm 0.7 mph1.1 kmh 30.22 in1023.4 mb 0.00 in0.0 mm 0.00 in0.0 mm 0.01 in0.3 mm
08:52 PM 40.6°F4.8°C 40.3°F4.6°C 98% Calm Calm 1.6 mph2.6 kmh 30.22 in1023.4 mb 0.00 in0.0 mm 0.00 in0.0 mm 0.01 in0.3 mm
08:57 PM 40.6°F4.8°C 40.3°F4.6°C 98% Calm Calm 0.7 mph1.1 kmh 30.22 in1023.4 mb 0.00 in0.0 mm 0.00 in0.0 mm 0.01 in0.3 mm
09:02 PM 40.6°F4.8°C 40.3°F4.6°C 98% 0.7 mph SW1.1 kmh SW 3.1 mph5.0 kmh 30.22 in1023.4 mb 0.00 in0.0 mm 0.00 in0.0 mm 0.01 in0.3 mm
09:07 PM 40.6°F4.8°C 40.3°F4.6°C 98% 0.7 mph SE1.1 kmh SE 2.2 mph3.5 kmh 30.22 in1023.4 mb 0.00 in0.0 mm 0.00 in0.0 mm 0.01 in0.3 mm
09:12 PM 40.6°F4.8°C 40.3°F4.6°C 98% 1.6 mph NE2.6 kmh NE 3.8 mph6.1 kmh 30.22 in1023.4 mb 0.00 in0.0 mm 0.00 in0.0 mm 0.01 in0.3 mm
09:17 PM 40.6°F4.8°C 40.3°F4.6°C 98% Calm Calm 1.6 mph2.6 kmh 30.22 in1023.4 mb 0.00 in0.0 mm 0.00 in0.0 mm 0.01 in0.3 mm
09:22 PM 40.6°F4.8°C 40.3°F4.6°C 98% Calm Calm 0.7 mph1.1 kmh 30.22 in1023.4 mb 0.00 in0.0 mm 0.00 in0.0 mm 0.01 in0.3 mm
09:27 PM 40.6°F4.8°C 40.3°F4.6°C 98% Calm Calm -- 30.22 in1023.4 mb 0.00 in0.0 mm 0.00 in0.0 mm 0.01 in0.3 mm
09:32 PM 40.6°F4.8°C 40.3°F4.6°C 98% Calm Calm 1.6 mph2.6 kmh 30.22 in1023.4 mb 0.00 in0.0 mm 0.00 in0.0 mm 0.01 in0.3 mm
09:37 PM 40.6°F4.8°C 40.3°F4.6°C 98% Calm Calm -- 30.22 in1023.4 mb 0.00 in0.0 mm 0.00 in0.0 mm 0.01 in0.3 mm
09:42 PM 40.6°F4.8°C 40.3°F4.6°C 98% Calm Calm 0.7 mph1.1 kmh 30.22 in1023.4 mb 0.00 in0.0 mm 0.00 in0.0 mm 0.01 in0.3 mm
09:47 PM 40.6°F4.8°C 40.3°F4.6°C 98% Calm Calm 1.6 mph2.6 kmh 30.22 in1023.4 mb 0.00 in0.0 mm 0.00 in0.0 mm 0.01 in0.3 mm
09:52 PM 40.6°F4.8°C 40.3°F4.6°C 98% 1.6 mph E2.6 kmh E 2.2 mph3.5 kmh 30.22 in1023.4 mb 0.00 in0.0 mm 0.00 in0.0 mm 0.01 in0.3 mm
09:57 PM 40.6°F4.8°C 40.3°F4.6°C 98% 0.7 mph SE1.1 kmh SE 1.6 mph2.6 kmh 30.22 in1023.4 mb 0.00 in0.0 mm 0.00 in0.0 mm 0.01 in0.3 mm
10:02 PM 40.6°F4.8°C 40.3°F4.6°C 98% Calm Calm -- 30.22 in1023.4 mb 0.00 in0.0 mm 0.00 in0.0 mm 0.01 in0.3 mm
10:07 PM 40.6°F4.8°C 40.3°F4.6°C 98% 2.2 mph SE3.5 kmh SE 4.5 mph7.2 kmh 30.21 in1023.0 mb 0.00 in0.0 mm 0.00 in0.0 mm 0.01 in0.3 mm
10:12 PM 40.6°F4.8°C 40.3°F4.6°C 98% 0.7 mph S1.1 kmh S 3.1 mph5.0 kmh 30.21 in1023.0 mb 0.00 in0.0 mm 0.00 in0.0 mm 0.01 in0.3 mm
10:17 PM 40.6°F4.8°C 40.3°F4.6°C 98% 1.6 mph SE2.6 kmh SE 3.1 mph5.0 kmh 30.21 in1023.0 mb 0.00 in0.0 mm 0.00 in0.0 mm 0.01 in0.3 mm
10:22 PM 40.6°F4.8°C 40.3°F4.6°C 98% Calm Calm 0.7 mph1.1 kmh 30.21 in1023.0 mb 0.00 in0.0 mm 0.00 in0.0 mm 0.01 in0.3 mm
10:27 PM 40.6°F4.8°C 40.3°F4.6°C 98% 0.7 mph S1.1 kmh S 2.2 mph3.5 kmh 30.22 in1023.4 mb 0.00 in0.0 mm 0.00 in0.0 mm 0.01 in0.3 mm
10:32 PM 40.6°F4.8°C 40.3°F4.6°C 98% Calm Calm 2.2 mph3.5 kmh 30.22 in1023.4 mb 0.00 in0.0 mm 0.00 in0.0 mm 0.01 in0.3 mm
10:37 PM 40.6°F4.8°C 40.3°F4.6°C 98% Calm Calm 0.7 mph1.1 kmh 30.22 in1023.4 mb 0.00 in0.0 mm 0.00 in0.0 mm 0.01 in0.3 mm
10:42 PM 40.6°F4.8°C 40.3°F4.6°C 98% Calm Calm -- 30.22 in1023.4 mb 0.00 in0.0 mm 0.00 in0.0 mm 0.01 in0.3 mm
10:47 PM 40.6°F4.8°C 40.3°F4.6°C 98% 0.7 mph SE1.1 kmh SE 2.2 mph3.5 kmh 30.22 in1023.4 mb 0.00 in0.0 mm 0.00 in0.0 mm 0.01 in0.3 mm
10:52 PM 40.6°F4.8°C 40.3°F4.6°C 98% 0.7 mph SE1.1 kmh SE 3.1 mph5.0 kmh 30.22 in1023.4 mb 0.00 in0.0 mm 0.00 in0.0 mm 0.01 in0.3 mm
10:57 PM 40.6°F4.8°C 40.3°F4.6°C 98% Calm Calm 1.6 mph2.6 kmh 30.22 in1023.4 mb 0.00 in0.0 mm 0.00 in0.0 mm 0.01 in0.3 mm
11:02 PM 40.6°F4.8°C 40.3°F4.6°C 98% 0.7 mph SE1.1 kmh SE 2.2 mph3.5 kmh 30.22 in1023.4 mb 0.00 in0.0 mm 0.00 in0.0 mm 0.01 in0.3 mm
11:07 PM 40.6°F4.8°C 40.3°F4.6°C 98% Calm Calm 0.7 mph1.1 kmh 30.22 in1023.4 mb 0.00 in0.0 mm 0.00 in0.0 mm 0.01 in0.3 mm
11:12 PM 40.5°F4.7°C 40.1°F4.5°C 98% Calm Calm 0.7 mph1.1 kmh 30.22 in1023.4 mb 0.00 in0.0 mm 0.00 in0.0 mm 0.01 in0.3 mm
11:17 PM 40.5°F4.7°C 40.1°F4.5°C 98% Calm Calm 0.7 mph1.1 kmh 30.22 in1023.4 mb 0.00 in0.0 mm 0.00 in0.0 mm 0.01 in0.3 mm
11:22 PM 40.5°F4.7°C 40.1°F4.5°C 98% 1.6 mph S2.6 kmh S 3.8 mph6.1 kmh 30.22 in1023.4 mb 0.00 in0.0 mm 0.00 in0.0 mm 0.01 in0.3 mm
11:27 PM 40.3°F4.6°C 39.9°F4.4°C 98% Calm Calm 1.6 mph2.6 kmh 30.22 in1023.4 mb 0.00 in0.0 mm 0.00 in0.0 mm 0.01 in0.3 mm
11:32 PM 40.3°F4.6°C 39.9°F4.4°C 98% Calm Calm -- 30.22 in1023.4 mb 0.00 in0.0 mm 0.00 in0.0 mm 0.01 in0.3 mm
11:37 PM 40.1°F4.5°C 39.7°F4.3°C 98% Calm Calm -- 30.22 in1023.4 mb 0.00 in0.0 mm 0.00 in0.0 mm 0.01 in0.3 mm
11:42 PM 40.1°F4.5°C 39.7°F4.3°C 98% 0.7 mph S1.1 kmh S 2.2 mph3.5 kmh 30.22 in1023.4 mb 0.00 in0.0 mm 0.00 in0.0 mm 0.01 in0.3 mm
11:47 PM 39.9°F4.4°C 39.5°F4.2°C 98% Calm Calm 1.6 mph2.6 kmh 30.22 in1023.4 mb 0.00 in0.0 mm 0.00 in0.0 mm 0.01 in0.3 mm
11:52 PM 39.7°F4.3°C 39.4°F4.1°C 98% Calm Calm 0.7 mph1.1 kmh 30.22 in1023.4 mb 0.00 in0.0 mm 0.00 in0.0 mm 0.01 in0.3 mm
11:57 PM 39.7°F4.3°C 39.4°F4.1°C 98% 0.7 mph SE1.1 kmh SE 1.6 mph2.6 kmh 30.22 in1023.4 mb 0.00 in0.0 mm 0.00 in0.0 mm 0.01 in0.3 mm